Главная страница
METAR-TAF:

METAR-TAF

Аэропорты :

Парзиван

Закаталы, Азербайджан

широта: 41-33-44N, долгота: 46-40-02E, высота над уровнем моря: 330 м

Текущие метеонаблюдения

Эта сводка был подготовлена 11 минут назад, в 03:00 UTC
Ветер 4 Узел от северо-северо-восточный
Температура 20°C
Влажность 78%
Давление 1016 hPa
Видимость 10 км и более
Отдельные облака на высоте 10000 фута

METAR: UBBY 170300Z 02004KT 9999 SCT100 20/16 Q1016 R33/////// NOSIG RMK MT OP

Время: 07:11 (03:11 UTC)

Прогноз

Эта сводка был подготовлена 57 минут назад, в 02:14 UTC
Прогноз действительный с 17-го 03 UTC до 17-го 12 UTC
Ветер 2 Узел переменных направлений
Видимость 10 км и более
небольшая облачность на высоте 5000 фута
Отдельные облака на высоте 8000 фута

TAF: UBBY 170214Z 1703/1712 VRB02KT 9999 FEW050 SCT080

Метеонаблюдения и прогнозы для более 4000 аэропортов (сводки METAR и TAF).

Имеющиеся станции представлены на карте желтыми и красными точками.

Чтобы увидеть название станции, наведите на нее мышь.

Затем щелкните, чтобы увидеть метеонаблюдения и метеопрогнозы.

Управление картой: чтобы увеличить масштаб, щелкните зеленые кнопки с черным крестиком; чтобы уменьшить масштаб, щелкните зеленую кнопку с тире; для просмотра соседних карт щелкайте зеленые стрелки.


METAR-TAF: